Time;durP1;ratioP1;P1;durP2;ratioP2;P2;SDS_P1;SDS_P2;PMS_P1;PMS_P2;Temp;Humidity;BMP_temperature;BMP_pressure;BME280_temperature;BME280_humidity;BME280_pressure;Samples;Min_cycle;Max_cycle;Signal;HPM_P1;HPM_P2
2022/10/09 00:01:10;;;;;;;16.37;9.97;;;6.50;1.00;;;;;;5038148;28;20217;-63
2022/10/09 00:03:39;;;;;;;13.67;9.57;;;6.50;1.00;;;;;;5037228;28;20216;-63
2022/10/09 00:06:11;;;;;;;13.83;9.07;;;6.40;1.00;;;;;;5003453;28;20676;-64
2022/10/09 00:08:38;;;;;;;11.53;7.33;;;6.40;1.00;;;;;;5035458;28;20253;-65
2022/10/09 00:11:12;;;;;;;9.37;5.70;;;6.40;1.00;;;;;;5021508;28;20196;-63
2022/10/09 00:13:39;;;;;;;9.93;5.37;;;6.40;1.00;;;;;;5039729;28;20322;-63
2022/10/09 00:16:09;;;;;;;10.70;5.47;;;6.40;1.00;;;;;;5039456;28;20208;-61
2022/10/09 00:18:37;;;;;;;10.67;5.87;;;6.40;1.00;;;;;;5049446;28;20659;-64
2022/10/09 00:21:13;;;;;;;11.17;7.30;;;6.50;62.80;;;;;;5035928;28;20200;-63
2022/10/09 00:23:40;;;;;;;13.37;8.30;;;6.50;63.40;;;;;;5037902;28;20196;-63
2022/10/09 00:26:07;;;;;;;17.63;10.13;;;6.50;99.90;;;;;;5039048;28;20191;-63
2022/10/09 00:28:34;;;;;;;15.87;10.37;;;6.50;99.90;;;;;;5036389;28;20233;-63
2022/10/09 00:31:08;;;;;;;19.20;12.07;;;6.50;12.50;;;;;;5020773;28;20203;-64
2022/10/09 00:33:36;;;;;;;21.23;11.63;;;6.50;24.10;;;;;;5040441;28;20196;-64
2022/10/09 00:36:04;;;;;;;18.77;10.60;;;6.50;1.00;;;;;;5021634;28;20187;-63
2022/10/09 00:38:32;;;;;;;13.70;9.20;;;6.50;1.00;;;;;;5021694;28;20655;-64
2022/10/09 00:40:59;;;;;;;12.10;8.03;;;6.50;1.00;;;;;;5024486;28;20203;-63
2022/10/09 00:43:40;;;;;;;11.70;8.17;;;6.50;1.00;;;;;;5019755;28;20206;-63
2022/10/09 00:46:25;;;;;;;14.70;8.33;;;6.50;1.00;;;;;;5049219;28;20196;-63
2022/10/09 00:49:30;;;;;;;13.73;8.97;;;6.40;1.00;;;;;;5021935;28;20207;-64
2022/10/09 00:52:04;;;;;;;22.33;15.10;;;6.30;1.00;;;;;;5038433;28;20697;-63
2022/10/09 00:54:34;;;;;;;10.20;6.40;;;6.40;1.00;;;;;;5038261;28;20209;-64
2022/10/09 00:57:02;;;;;;;8.53;5.87;;;6.30;1.00;;;;;;5005380;28;20219;-65
2022/10/09 00:59:30;;;;;;;8.93;5.57;;;6.30;1.00;;;;;;5036846;28;20227;-64
2022/10/09 01:01:57;;;;;;;11.37;5.70;;;6.20;99.90;;;;;;5038492;28;20207;-64
2022/10/09 01:04:24;;;;;;;9.43;5.70;;;6.10;1.00;;;;;;5038607;28;20219;-65
2022/10/09 01:07:17;;;;;;;8.93;5.80;;;6.10;1.00;;;;;;5034379;28;20187;-62
2022/10/09 01:10:20;;;;;;;8.33;5.00;;;6.00;1.00;;;;;;5004342;28;20203;-62
2022/10/09 01:13:07;;;;;;;8.13;5.30;;;5.90;1.00;;;;;;4988263;28;20286;-61
2022/10/09 01:15:50;;;;;;;6.97;5.03;;;5.80;1.00;;;;;;5051011;28;20626;-63
2022/10/09 01:18:23;;;;;;;7.23;4.93;;;5.80;99.90;;;;;;5055422;28;20218;-63
2022/10/09 01:21:09;;;;;;;8.93;5.40;;;5.80;1.00;;;;;;5040002;28;20205;-64
2022/10/09 01:23:39;;;;;;;11.53;5.17;;;5.80;1.00;;;;;;5040939;28;20230;-62
2022/10/09 01:26:15;;;;;;;8.23;4.97;;;5.70;1.00;;;;;;5041566;28;20292;-62
2022/10/09 01:28:49;;;;;;;10.47;5.27;;;5.70;1.00;;;;;;5019222;28;20223;-63
2022/10/09 01:31:18;;;;;;;13.47;6.77;;;5.70;1.00;;;;;;5021794;28;20185;-62
2022/10/09 01:33:46;;;;;;;11.87;7.97;;;5.70;99.90;;;;;;5021572;28;20878;-63
2022/10/09 01:36:15;;;;;;;11.07;6.57;;;5.60;99.90;;;;;;5019406;28;20663;-63
2022/10/09 01:38:43;;;;;;;10.17;6.13;;;5.60;99.90;;;;;;5021796;28;20959;-62
2022/10/09 01:41:10;;;;;;;7.03;5.30;;;5.60;99.90;;;;;;5036300;28;20211;-64
2022/10/09 01:43:37;;;;;;;7.30;5.33;;;5.60;99.90;;;;;;5022072;28;20218;-64
2022/10/09 01:46:18;;;;;;;6.33;4.97;;;5.60;99.90;;;;;;5020501;28;20228;-63
2022/10/09 01:49:06;;;;;;;7.97;5.30;;;5.50;99.90;;;;;;5019634;28;20228;-62
2022/10/09 01:51:50;;;;;;;8.50;5.30;;;5.50;99.90;;;;;;5009753;28;20204;-61
2022/10/09 01:54:36;;;;;;;10.63;5.13;;;5.50;99.90;;;;;;5034802;28;20212;-61
2022/10/09 01:57:07;;;;;;;8.80;5.07;;;5.50;99.90;;;;;;5019729;28;20199;-62
2022/10/09 01:59:39;;;;;;;7.80;5.27;;;5.40;1.00;;;;;;5035542;28;20205;-62
2022/10/09 02:02:07;;;;;;;8.57;5.17;;;5.40;1.00;;;;;;5019428;28;20235;-61
2022/10/09 02:04:37;;;;;;;10.00;5.13;;;5.40;1.00;;;;;;5019560;28;20212;-62
2022/10/09 02:07:05;;;;;;;7.73;5.00;;;5.30;1.00;;;;;;5017113;28;20212;-62
2022/10/09 02:09:34;;;;;;;11.80;5.57;;;5.30;1.00;;;;;;5019582;28;20197;-62
2022/10/09 02:12:06;;;;;;;9.70;4.90;;;5.30;1.00;;;;;;5019805;28;20192;-62
2022/10/09 02:14:34;;;;;;;6.93;4.77;;;5.30;1.00;;;;;;5027274;28;20319;-62
2022/10/09 02:17:10;;;;;;;7.93;4.90;;;5.30;99.90;;;;;;5020991;28;20274;-62
2022/10/09 02:20:02;;;;;;;8.33;5.17;;;5.30;99.90;;;;;;5020135;28;20226;-63
2022/10/09 02:22:32;;;;;;;12.50;4.80;;;5.30;99.90;;;;;;5019518;28;20451;-63
2022/10/09 02:25:03;;;;;;;9.17;5.67;;;5.20;99.90;;;;;;5009838;28;20243;-62
2022/10/09 02:27:31;;;;;;;9.17;5.30;;;5.10;99.90;;;;;;5020139;28;20620;-63
2022/10/09 02:30:00;;;;;;;10.37;5.30;;;5.10;99.90;;;;;;5019933;28;20197;-63
2022/10/09 02:32:27;;;;;;;6.33;5.30;;;5.20;99.90;;;;;;5021682;28;20200;-63
2022/10/09 02:34:55;;;;;;;11.33;5.53;;;5.10;99.90;;;;;;5018304;28;20204;-62
2022/10/09 02:37:22;;;;;;;8.50;5.43;;;5.00;99.90;;;;;;5009936;28;20212;-62
2022/10/09 02:39:51;;;;;;;8.37;5.50;;;4.90;1.00;;;;;;5018234;28;20192;-63
2022/10/09 02:42:18;;;;;;;7.87;4.87;;;4.70;1.00;;;;;;5016011;28;20200;-63
2022/10/09 02:44:45;;;;;;;7.90;4.90;;;4.70;99.90;;;;;;5001023;28;20252;-63
2022/10/09 02:47:12;;;;;;;10.40;5.53;;;4.80;99.90;;;;;;5020048;28;20779;-62
2022/10/09 02:49:39;;;;;;;8.80;5.43;;;4.80;13.90;;;;;;5020025;28;20203;-61
2022/10/09 02:52:06;;;;;;;5.87;5.07;;;4.80;1.00;;;;;;5018866;28;20199;-61
2022/10/09 02:54:33;;;;;;;7.50;5.30;;;4.80;1.00;;;;;;5018597;28;20214;-62
2022/10/09 02:57:00;;;;;;;10.27;5.30;;;4.80;1.00;;;;;;5019879;28;20544;-62
2022/10/09 02:59:27;;;;;;;8.07;5.17;;;4.80;1.00;;;;;;5020326;28;20196;-62
2022/10/09 03:01:55;;;;;;;10.20;5.40;;;4.80;1.00;;;;;;5002270;28;20223;-62
2022/10/09 03:04:22;;;;;;;6.93;5.17;;;4.80;1.00;;;;;;5018969;28;20535;-62
2022/10/09 03:06:49;;;;;;;7.23;6.07;;;4.70;1.00;;;;;;5015416;28;20204;-62
2022/10/09 03:09:16;;;;;;;7.17;5.20;;;4.60;99.90;;;;;;5018205;28;20279;-62
2022/10/09 03:11:42;;;;;;;6.57;5.23;;;4.60;99.90;;;;;;5025088;28;20298;-62
2022/10/09 03:14:10;;;;;;;8.37;5.23;;;4.50;94.50;;;;;;5016085;28;20207;-62
2022/10/09 03:16:37;;;;;;;8.03;5.47;;;4.60;90.40;;;;;;5033330;28;20272;-62
2022/10/09 03:19:04;;;;;;;7.20;5.87;;;4.50;57.80;;;;;;5019396;28;20618;-64
2022/10/09 03:21:31;;;;;;;6.00;5.37;;;4.50;1.00;;;;;;5019592;28;20205;-63
2022/10/09 03:23:59;;;;;;;9.20;5.80;;;4.50;1.00;;;;;;5032450;28;20256;-64
2022/10/09 03:26:27;;;;;;;7.37;5.63;;;4.50;5.00;;;;;;5019950;28;20216;-63
2022/10/09 03:28:54;;;;;;;9.33;5.40;;;4.50;1.40;;;;;;5038928;28;20219;-63
2022/10/09 03:31:24;;;;;;;7.57;5.37;;;4.50;1.00;;;;;;5044476;28;20207;-63
2022/10/09 03:34:12;;;;;;;7.50;5.50;;;4.50;1.00;;;;;;5025871;28;20198;-64
2022/10/09 03:36:39;;;;;;;9.13;6.20;;;4.50;1.00;;;;;;5044369;28;20205;-62
2022/10/09 03:39:06;;;;;;;9.23;5.73;;;4.40;1.00;;;;;;5035292;28;20197;-63
2022/10/09 03:41:33;;;;;;;11.10;5.80;;;4.40;1.00;;;;;;5054723;28;20204;-63
2022/10/09 03:44:00;;;;;;;7.60;5.70;;;4.40;1.00;;;;;;5022007;28;20215;-62
2022/10/09 03:46:27;;;;;;;6.77;5.53;;;4.40;1.00;;;;;;5037031;28;20235;-62
2022/10/09 03:48:56;;;;;;;11.03;5.57;;;4.40;1.00;;;;;;5026642;28;20192;-61
2022/10/09 03:51:23;;;;;;;6.23;5.23;;;4.40;1.00;;;;;;5021781;28;20306;-61
2022/10/09 03:53:50;;;;;;;5.90;5.30;;;4.40;1.00;;;;;;5021685;28;20401;-60
2022/10/09 03:56:17;;;;;;;8.37;5.17;;;4.40;1.00;;;;;;5021600;28;20319;-61
2022/10/09 03:58:46;;;;;;;6.97;5.57;;;4.40;1.00;;;;;;5022099;28;20211;-61
2022/10/09 04:01:13;;;;;;;9.30;6.37;;;4.40;1.00;;;;;;5036489;28;20397;-63
2022/10/09 04:03:40;;;;;;;8.17;5.50;;;4.40;1.00;;;;;;5035062;28;20208;-61
2022/10/09 04:06:07;;;;;;;7.40;5.63;;;4.50;1.00;;;;;;5019982;28;20593;-62
2022/10/09 04:08:38;;;;;;;15.60;6.70;;;4.40;1.00;;;;;;5036113;28;20205;-62
2022/10/09 04:11:04;;;;;;;10.03;5.60;;;4.40;1.00;;;;;;5019910;28;20462;-61
2022/10/09 04:13:32;;;;;;;7.57;5.30;;;4.30;1.00;;;;;;5002813;28;20311;-62
2022/10/09 04:15:59;;;;;;;6.70;5.50;;;4.30;1.00;;;;;;5042010;28;20543;-61
2022/10/09 04:18:26;;;;;;;6.03;5.17;;;4.20;1.00;;;;;;5020255;28;20782;-61
2022/10/09 04:20:55;;;;;;;7.07;5.77;;;4.20;1.00;;;;;;5010381;28;20299;-61
2022/10/09 04:23:25;;;;;;;6.13;4.60;;;4.20;1.00;;;;;;5036873;28;20200;-61
2022/10/09 04:25:59;;;;;;;6.70;4.93;;;4.20;1.00;;;;;;5019191;28;20293;-60
2022/10/09 04:28:28;;;;;;;10.13;5.57;;;4.20;1.00;;;;;;5035791;28;20642;-60
2022/10/09 04:30:56;;;;;;;6.87;5.10;;;4.20;1.00;;;;;;5037347;28;20251;-61
2022/10/09 04:33:24;;;;;;;8.00;5.83;;;4.20;1.00;;;;;;5036792;28;20890;-62
2022/10/09 04:35:53;;;;;;;7.83;5.23;;;4.20;1.00;;;;;;5051529;28;20765;-65
2022/10/09 04:38:20;;;;;;;9.83;5.40;;;4.10;1.00;;;;;;5036751;28;20188;-64
2022/10/09 04:40:57;;;;;;;7.70;5.30;;;4.10;1.00;;;;;;5052600;28;20203;-64
2022/10/09 04:43:24;;;;;;;8.63;6.00;;;4.10;1.00;;;;;;5019772;28;20184;-64
2022/10/09 04:45:51;;;;;;;11.17;6.63;;;4.10;1.00;;;;;;5051697;28;20871;-63
2022/10/09 04:48:18;;;;;;;10.57;6.47;;;4.20;1.00;;;;;;5019020;28;20191;-61
2022/10/09 04:50:45;;;;;;;9.77;6.80;;;4.10;1.00;;;;;;5020644;28;20196;-61
2022/10/09 04:53:13;;;;;;;8.47;6.23;;;4.10;1.00;;;;;;5033144;28;20223;-62
2022/10/09 04:55:44;;;;;;;14.33;7.97;;;4.10;1.00;;;;;;5037607;28;20218;-62
2022/10/09 04:58:12;;;;;;;13.43;6.60;;;4.00;1.00;;;;;;5025818;28;20694;-61
2022/10/09 05:00:44;;;;;;;9.13;6.80;;;4.00;1.00;;;;;;5051450;28;20207;-60
2022/10/09 05:03:12;;;;;;;10.43;7.13;;;4.00;1.00;;;;;;5035922;28;20206;-63
2022/10/09 05:05:39;;;;;;;9.40;6.53;;;4.00;1.00;;;;;;5018817;28;20239;-63
2022/10/09 05:08:06;;;;;;;9.83;6.17;;;4.00;1.00;;;;;;5035364;28;20187;-64
2022/10/09 05:10:33;;;;;;;9.43;6.87;;;3.90;1.00;;;;;;5036768;28;20260;-63
2022/10/09 05:13:00;;;;;;;8.87;5.97;;;3.90;1.00;;;;;;5018810;28;20529;-64
2022/10/09 05:15:27;;;;;;;11.90;6.60;;;3.90;1.00;;;;;;5019701;28;20666;-63
2022/10/09 05:17:54;;;;;;;8.50;7.10;;;3.90;1.00;;;;;;5017380;28;20318;-62
2022/10/09 05:20:21;;;;;;;8.07;6.70;;;3.80;1.00;;;;;;5035042;28;20678;-61
2022/10/09 05:22:48;;;;;;;7.57;5.80;;;3.80;1.00;;;;;;5035557;28;20310;-62
2022/10/09 05:25:16;;;;;;;8.77;6.60;;;3.90;1.00;;;;;;5018589;28;20246;-63
2022/10/09 05:27:43;;;;;;;12.50;6.40;;;3.90;1.00;;;;;;5037003;28;20228;-63
2022/10/09 05:30:10;;;;;;;10.63;6.47;;;3.80;1.00;;;;;;5036210;28;20204;-63
2022/10/09 05:32:37;;;;;;;13.53;6.83;;;3.90;1.00;;;;;;5037939;28;20200;-63
2022/10/09 05:35:05;;;;;;;10.37;7.20;;;3.90;1.00;;;;;;5037414;28;20804;-62
2022/10/09 05:37:32;;;;;;;9.53;7.17;;;3.90;1.00;;;;;;5040584;28;20199;-63
2022/10/09 05:39:59;;;;;;;9.83;7.00;;;3.90;1.00;;;;;;5050162;28;20180;-64
2022/10/09 05:42:26;;;;;;;11.03;5.83;;;3.90;1.00;;;;;;5049569;28;20210;-61
2022/10/09 05:44:53;;;;;;;10.17;6.30;;;4.00;1.00;;;;;;5032497;28;20204;-63
2022/10/09 05:47:20;;;;;;;10.53;6.07;;;4.10;1.00;;;;;;5034765;28;20196;-63
2022/10/09 05:49:46;;;;;;;9.87;6.83;;;4.10;1.00;;;;;;5036710;28;20667;-64
2022/10/09 05:52:13;;;;;;;14.13;7.83;;;4.10;35.00;;;;;;5035814;28;20227;-64
2022/10/09 05:54:41;;;;;;;10.93;7.27;;;4.20;99.90;;;;;;5050428;28;20203;-62
2022/10/09 05:57:08;;;;;;;10.87;7.10;;;4.30;99.90;;;;;;5050472;28;20253;-63
2022/10/09 05:59:36;;;;;;;16.87;8.40;;;4.50;99.90;;;;;;5009885;28;20219;-63
2022/10/09 06:02:03;;;;;;;8.70;7.27;;;5.20;1.00;;;;;;5022009;28;20200;-63
2022/10/09 06:04:30;;;;;;;8.33;6.37;;;6.20;1.00;;;;;;5038358;28;20215;-65
2022/10/09 06:06:57;;;;;;;6.93;4.93;;;7.20;1.00;;;;;;5037275;28;20211;-64
2022/10/09 06:09:24;;;;;;;4.07;3.67;;;8.00;99.90;;;;;;5023363;28;20263;-62
2022/10/09 06:11:53;;;;;;;6.33;3.87;;;8.90;1.00;;;;;;5022659;28;20195;-63
2022/10/09 06:14:21;;;;;;;4.63;4.13;;;10.00;1.00;;;;;;5023179;28;20227;-63
2022/10/09 06:16:48;;;;;;;6.07;4.53;;;11.00;1.00;;;;;;5026069;28;20210;-63
2022/10/09 06:19:17;;;;;;;5.00;3.63;;;11.80;1.00;;;;;;5031405;28;20685;-63
2022/10/09 06:21:45;;;;;;;5.13;3.70;;;12.60;1.00;;;;;;5038493;28;20201;-64
2022/10/09 06:24:22;;;;;;;3.27;2.63;;;13.20;1.00;;;;;;5038083;28;20692;-63
2022/10/09 06:26:55;;;;;;;4.33;3.40;;;13.90;1.00;;;;;;5012376;28;20207;-64
2022/10/09 06:29:22;;;;;;;5.72;3.00;;;14.90;1.00;;;;;;5040026;28;20196;-65
2022/10/09 06:31:52;;;;;;;10.55;5.13;;;15.80;1.00;;;;;;5055105;28;20199;-64
2022/10/09 06:34:19;;;;;;;5.15;3.45;;;16.10;1.00;;;;;;5040060;28;20227;-65
2022/10/09 06:36:46;;;;;;;5.28;3.08;;;16.50;1.00;;;;;;5039424;28;20213;-65
2022/10/09 06:39:13;;;;;;;3.55;3.25;;;16.80;1.00;;;;;;5038695;28;20286;-65
2022/10/09 06:41:40;;;;;;;5.85;3.00;;;17.40;1.00;;;;;;5022028;28;20291;-65
2022/10/09 06:44:23;;;;;;;4.45;3.25;;;18.00;1.00;;;;;;5051945;28;20601;-64
2022/10/09 06:46:50;;;;;;;5.68;3.05;;;17.10;1.00;;;;;;5007099;28;20219;-64
2022/10/09 06:49:17;;;;;;;3.95;3.15;;;16.30;1.00;;;;;;5038913;28;20247;-65
2022/10/09 06:51:44;;;;;;;5.95;2.60;;;16.50;1.00;;;;;;5039622;28;20184;-65
2022/10/09 06:54:13;;;;;;;4.93;3.00;;;16.80;1.00;;;;;;5038295;28;20183;-64
2022/10/09 06:56:41;;;;;;;6.30;2.88;;;17.00;1.00;;;;;;5038307;28;20239;-64
2022/10/09 06:59:10;;;;;;;6.43;2.90;;;16.90;1.00;;;;;;5037885;28;20191;-64
2022/10/09 07:01:37;;;;;;;3.30;2.70;;;16.40;1.00;;;;;;5038003;28;20195;-64
2022/10/09 07:04:13;;;;;;;5.32;3.42;;;16.10;1.00;;;;;;5055443;28;20716;-65
2022/10/09 07:06:43;;;;;;;5.28;3.95;;;14.20;1.00;;;;;;5019817;28;20709;-64
2022/10/09 07:09:12;;;;;;;5.03;3.42;;;12.80;1.00;;;;;;5022719;28;20220;-64
2022/10/09 07:11:49;;;;;;;5.18;3.50;;;12.00;1.00;;;;;;5018890;28;20200;-64
2022/10/09 07:14:16;;;;;;;6.93;3.17;;;11.30;1.00;;;;;;5018190;28;20180;-64
2022/10/09 07:16:45;;;;;;;5.13;2.85;;;10.60;1.00;;;;;;5039965;28;21108;-64
2022/10/09 07:19:14;;;;;;;6.88;3.38;;;10.50;1.00;;;;;;5027247;28;20199;-64
2022/10/09 07:21:44;;;;;;;4.93;3.15;;;10.10;1.00;;;;;;5037729;28;20310;-64
2022/10/09 07:24:12;;;;;;;3.77;3.03;;;9.40;1.00;;;;;;5038942;28;20290;-64
2022/10/09 07:26:42;;;;;;;8.80;3.90;;;9.30;1.00;;;;;;5020425;28;20219;-64
2022/10/09 07:29:12;;;;;;;6.50;3.53;;;9.40;1.00;;;;;;5038326;28;20749;-64
2022/10/09 07:31:39;;;;;;;6.40;3.40;;;9.40;1.00;;;;;;5052237;28;20809;-64
2022/10/09 07:34:06;;;;;;;7.30;4.03;;;9.20;1.00;;;;;;5038865;28;20200;-64
2022/10/09 07:36:34;;;;;;;5.70;3.83;;;8.90;98.90;;;;;;5019622;28;20295;-64
2022/10/09 07:39:03;;;;;;;6.57;3.97;;;8.80;99.90;;;;;;5004063;28;20213;-63
2022/10/09 07:41:34;;;;;;;4.87;4.07;;;8.80;99.90;;;;;;5002077;28;20705;-63
2022/10/09 07:44:01;;;;;;;8.63;4.27;;;8.80;99.90;;;;;;5054938;28;20208;-64
2022/10/09 07:46:28;;;;;;;9.07;5.67;;;9.00;99.90;;;;;;5035925;28;20294;-63
2022/10/09 07:49:00;;;;;;;10.43;4.87;;;9.00;99.90;;;;;;5048953;28;20307;-63
2022/10/09 07:51:28;;;;;;;8.10;4.07;;;9.30;99.90;;;;;;5019231;28;20262;-64
2022/10/09 07:53:56;;;;;;;9.00;4.60;;;9.30;99.90;;;;;;5020929;28;20261;-63
2022/10/09 07:56:28;;;;;;;8.83;4.93;;;9.30;99.90;;;;;;5035248;28;20196;-64
2022/10/09 07:58:58;;;;;;;10.93;4.33;;;9.30;99.90;;;;;;5026257;28;20769;-64
2022/10/09 08:01:27;;;;;;;10.27;4.23;;;9.50;99.90;;;;;;5020246;28;20206;-64
2022/10/09 08:03:55;;;;;;;10.50;4.07;;;9.60;99.90;;;;;;5034933;28;20192;-64
2022/10/09 08:06:22;;;;;;;6.37;3.97;;;9.80;99.90;;;;;;5036695;28;20728;-64
2022/10/09 08:08:51;;;;;;;6.37;3.50;;;9.80;95.00;;;;;;5052105;28;20207;-63
2022/10/09 08:11:18;;;;;;;8.03;3.30;;;9.50;64.40;;;;;;5037528;28;20192;-63
2022/10/09 08:13:47;;;;;;;12.17;3.67;;;9.40;91.10;;;;;;5037337;28;20241;-63
2022/10/09 08:16:14;;;;;;;7.73;4.70;;;9.60;97.60;;;;;;5019569;28;20262;-64
2022/10/09 08:18:41;;;;;;;6.53;3.43;;;9.60;99.90;;;;;;5020228;28;20570;-64
2022/10/09 08:21:11;;;;;;;6.70;3.73;;;9.80;5.40;;;;;;5010670;28;20207;-63
2022/10/09 08:23:38;;;;;;;8.27;3.30;;;10.00;16.10;;;;;;5038893;28;20743;-65
2022/10/09 08:26:15;;;;;;;12.50;3.57;;;10.10;2.10;;;;;;5036675;28;20306;-65
2022/10/09 08:28:42;;;;;;;7.80;3.60;;;10.30;1.00;;;;;;5024077;28;20239;-65
2022/10/09 08:31:14;;;;;;;9.03;3.70;;;10.40;1.00;;;;;;5017224;28;20189;-64
2022/10/09 08:33:42;;;;;;;5.70;3.33;;;10.40;1.00;;;;;;5030184;28;20196;-63
2022/10/09 08:36:14;;;;;;;4.63;3.00;;;10.60;1.00;;;;;;5003876;28;20231;-64
2022/10/09 08:38:42;;;;;;;9.67;4.03;;;10.70;1.00;;;;;;5015689;28;20598;-64
2022/10/09 08:41:40;;;;;;;7.40;2.83;;;10.90;1.00;;;;;;5017623;28;20635;-65
2022/10/09 08:44:26;;;;;;;8.67;2.97;;;11.20;1.00;;;;;;5017348;28;20212;-65
2022/10/09 08:47:15;;;;;;;5.60;2.70;;;13.20;1.00;;;;;;5016133;28;20242;-65
2022/10/09 08:50:11;;;;;;;5.75;2.63;;;19.40;1.00;;;;;;5016957;28;20721;-65
2022/10/09 08:52:54;;;;;;;7.03;2.42;;;22.90;1.00;;;;;;5007694;28;20327;-66
2022/10/09 08:55:34;;;;;;;7.68;3.92;;;24.50;1.00;;;;;;5021745;28;20623;-65
2022/10/09 08:58:05;;;;;;;5.47;1.80;;;25.20;1.00;;;;;;5017224;28;20609;-64
2022/10/09 09:00:44;;;;;;;4.63;1.88;;;26.50;1.00;;;;;;5032025;28;20227;-64
2022/10/09 09:03:40;;;;;;;5.53;2.72;;;24.10;1.00;;;;;;5000025;28;20241;-65
2022/10/09 09:06:13;;;;;;;4.93;2.05;;;24.80;1.00;;;;;;5016859;28;20207;-64
2022/10/09 09:08:59;;;;;;;5.88;2.47;;;26.90;1.00;;;;;;5031636;28;20208;-63
2022/10/09 09:11:44;;;;;;;6.38;1.92;;;27.20;1.00;;;;;;5018367;28;20273;-64
2022/10/09 09:14:17;;;;;;;4.70;2.00;;;29.10;1.00;;;;;;5018580;28;20235;-64
2022/10/09 09:17:02;;;;;;;7.13;2.85;;;29.10;1.00;;;;;;5007239;28;20201;-64
2022/10/09 09:20:20;;;;;;;6.25;2.83;;;28.10;1.00;;;;;;5016884;28;20204;-64
2022/10/09 09:22:50;;;;;;;7.40;2.13;;;27.80;1.00;;;;;;4958723;28;20226;-63
2022/10/09 09:25:33;;;;;;;3.95;2.30;;;24.50;1.00;;;;;;5016565;28;20196;-64
2022/10/09 09:28:30;;;;;;;11.25;2.33;;;24.70;1.00;;;;;;5026635;28;20227;-64
2022/10/09 09:31:19;;;;;;;7.03;2.28;;;26.10;1.00;;;;;;5011846;28;20220;-64
2022/10/09 09:33:52;;;;;;;5.03;2.35;;;24.00;1.00;;;;;;5052894;28;20262;-63
2022/10/09 09:36:37;;;;;;;5.95;2.38;;;25.60;1.00;;;;;;5036198;28;20206;-64
2022/10/09 09:39:05;;;;;;;6.60;2.58;;;22.10;1.00;;;;;;5038604;28;20210;-64
2022/10/09 09:42:05;;;;;;;4.32;2.22;;;22.20;1.00;;;;;;5038905;28;20203;-64
2022/10/09 09:44:35;;;;;;;5.50;2.40;;;27.20;1.00;;;;;;5030066;28;20528;-65
2022/10/09 09:47:02;;;;;;;5.95;1.88;;;24.10;1.00;;;;;;5042306;28;20211;-64
2022/10/09 09:49:29;;;;;;;7.50;2.30;;;24.30;1.00;;;;;;5023020;28;20616;-64
2022/10/09 09:52:00;;;;;;;8.23;2.08;;;26.70;1.00;;;;;;5044305;28;20360;-64
2022/10/09 09:54:29;;;;;;;7.15;2.35;;;26.40;1.00;;;;;;5013977;28;20663;-64
2022/10/09 09:56:59;;;;;;;10.07;2.42;;;25.80;1.00;;;;;;5042352;28;20282;-64
2022/10/09 09:59:42;;;;;;;5.75;2.20;;;26.30;1.00;;;;;;5029678;28;20234;-64
2022/10/09 10:02:12;;;;;;;5.32;2.00;;;27.70;1.00;;;;;;5020168;28;20203;-64
2022/10/09 10:05:13;;;;;;;4.95;2.10;;;29.90;1.00;;;;;;5026424;28;20590;-64
2022/10/09 10:07:42;;;;;;;7.07;2.20;;;24.10;1.00;;;;;;5038660;28;20211;-64
2022/10/09 10:10:09;;;;;;;7.10;2.10;;;23.40;1.00;;;;;;5005589;28;20315;-64
2022/10/09 10:12:50;;;;;;;8.80;2.08;;;26.60;1.00;;;;;;5054771;28;20622;-65
2022/10/09 10:15:26;;;;;;;6.80;2.30;;;24.50;1.00;;;;;;5023314;28;20369;-65
2022/10/09 10:17:58;;;;;;;5.88;1.95;;;27.00;1.00;;;;;;5037074;28;20204;-66
2022/10/09 10:20:27;;;;;;;6.45;1.75;;;29.60;1.00;;;;;;5039028;28;20192;-65
2022/10/09 10:22:56;;;;;;;4.47;1.90;;;24.50;1.00;;;;;;5039571;28;20206;-66
2022/10/09 10:25:28;;;;;;;5.53;2.00;;;25.00;1.00;;;;;;5040987;28;20303;-66
2022/10/09 10:28:04;;;;;;;7.15;2.20;;;23.20;1.00;;;;;;5024785;28;20235;-67
2022/10/09 10:30:34;;;;;;;4.25;1.52;;;25.90;1.00;;;;;;5044466;28;20730;-65
2022/10/09 10:33:09;;;;;;;7.20;1.88;;;27.50;1.00;;;;;;5057392;28;20200;-65
2022/10/09 10:35:39;;;;;;;4.20;1.73;;;27.70;1.00;;;;;;5043063;28;20683;-64
2022/10/09 10:38:16;;;;;;;7.85;2.08;;;24.60;1.00;;;;;;5041876;28;20200;-65
2022/10/09 10:40:51;;;;;;;4.32;1.95;;;24.60;1.00;;;;;;5023277;28;20252;-63
2022/10/09 10:43:46;;;;;;;3.90;1.55;;;24.80;1.00;;;;;;5055391;28;20260;-65
2022/10/09 10:46:24;;;;;;;8.35;2.55;;;25.60;1.00;;;;;;5039714;28;20203;-65
2022/10/09 10:48:51;;;;;;;5.80;1.75;;;24.20;1.00;;;;;;5040486;28;20648;-64
2022/10/09 10:51:52;;;;;;;5.80;1.60;;;22.90;1.00;;;;;;5023547;28;20215;-63
2022/10/09 10:54:31;;;;;;;5.32;1.85;;;24.70;1.00;;;;;;5006289;28;20211;-63
2022/10/09 10:57:01;;;;;;;4.60;1.60;;;24.90;1.00;;;;;;5021988;28;20191;-65
2022/10/09 10:59:47;;;;;;;8.52;1.80;;;25.00;1.00;;;;;;5040506;28;20722;-65
2022/10/09 11:02:29;;;;;;;3.92;1.55;;;25.00;1.00;;;;;;5041611;28;20206;-65
2022/10/09 11:05:01;;;;;;;4.45;1.60;;;27.00;1.00;;;;;;5009366;28;20207;-65
2022/10/09 11:07:50;;;;;;;5.45;1.60;;;26.70;1.00;;;;;;5030178;28;20207;-64
2022/10/09 11:10:24;;;;;;;5.13;1.63;;;26.50;1.00;;;;;;5038354;28;20605;-65
2022/10/09 11:12:51;;;;;;;6.10;1.90;;;25.70;1.00;;;;;;5026214;28;20216;-65
2022/10/09 11:15:36;;;;;;;5.97;2.05;;;25.60;1.00;;;;;;5053024;28;20199;-64
2022/10/09 11:18:26;;;;;;;5.97;1.98;;;24.50;1.00;;;;;;5038688;28;20318;-64
2022/10/09 11:21:02;;;;;;;3.85;1.73;;;24.00;1.00;;;;;;5014134;28;20206;-66
2022/10/09 11:23:32;;;;;;;5.32;1.52;;;23.90;1.00;;;;;;5040736;28;20223;-65
2022/10/09 11:26:09;;;;;;;5.63;1.58;;;22.90;1.00;;;;;;5024581;28;20776;-65
2022/10/09 11:28:55;;;;;;;3.42;1.60;;;23.10;1.00;;;;;;5023195;28;20735;-65
2022/10/09 11:31:40;;;;;;;4.97;1.83;;;23.40;1.00;;;;;;5030503;28;20697;-63
2022/10/09 11:34:16;;;;;;;3.53;1.58;;;20.40;1.00;;;;;;5027382;28;20200;-64
2022/10/09 11:36:44;;;;;;;3.08;1.50;;;20.70;1.00;;;;;;5022429;28;20835;-64
2022/10/09 11:39:21;;;;;;;3.83;1.40;;;21.40;1.00;;;;;;5025526;28;20294;-64
2022/10/09 11:41:51;;;;;;;3.72;1.33;;;21.30;1.00;;;;;;5041755;28;20769;-66
2022/10/09 11:44:34;;;;;;;6.55;1.90;;;20.90;1.00;;;;;;5046134;28;20195;-66
2022/10/09 11:47:16;;;;;;;8.23;1.90;;;22.10;1.00;;;;;;5050055;28;20212;-66
2022/10/09 11:50:05;;;;;;;5.30;1.60;;;23.30;1.00;;;;;;5048226;28;20192;-65
2022/10/09 11:53:07;;;;;;;2.95;1.27;;;22.10;1.00;;;;;;5039185;28;20189;-67
2022/10/09 11:55:35;;;;;;;4.65;1.83;;;20.70;1.00;;;;;;5055833;28;20282;-66
2022/10/09 11:58:24;;;;;;;5.60;1.60;;;21.50;1.00;;;;;;5021048;28;20228;-65
2022/10/09 12:01:06;;;;;;;2.97;1.38;;;22.70;1.00;;;;;;5055735;28;20235;-66
2022/10/09 12:03:38;;;;;;;5.63;1.70;;;20.90;1.00;;;;;;5056966;28;20200;-66
2022/10/09 12:06:15;;;;;;;5.50;1.48;;;22.40;1.00;;;;;;5041101;28;20444;-66
2022/10/09 12:09:00;;;;;;;4.53;1.58;;;21.90;1.00;;;;;;5041272;28;20215;-65
2022/10/09 12:11:28;;;;;;;4.53;1.42;;;21.20;1.00;;;;;;5034746;28;20215;-67
2022/10/09 12:13:58;;;;;;;5.95;1.83;;;20.40;1.00;;;;;;5025692;28;20423;-66
2022/10/09 12:16:45;;;;;;;6.43;1.45;;;19.90;1.00;;;;;;5036046;28;20267;-65
2022/10/09 12:19:33;;;;;;;5.70;1.40;;;19.90;1.00;;;;;;5063501;28;20753;-64
2022/10/09 12:22:12;;;;;;;7.38;1.70;;;20.10;1.00;;;;;;5041672;28;20261;-64
2022/10/09 12:24:45;;;;;;;3.03;1.50;;;19.60;1.00;;;;;;5039905;28;20192;-65
2022/10/09 12:27:20;;;;;;;5.05;1.88;;;19.30;1.00;;;;;;5021786;28;20511;-63
2022/10/09 12:30:02;;;;;;;6.07;1.27;;;19.60;1.00;;;;;;5027866;28;20635;-63
2022/10/09 12:32:35;;;;;;;6.30;1.45;;;19.70;1.00;;;;;;5024455;28;20287;-64
2022/10/09 12:35:30;;;;;;;3.03;1.40;;;19.40;1.00;;;;;;5026724;28;20204;-63
2022/10/09 12:37:57;;;;;;;5.22;1.40;;;19.70;1.00;;;;;;5052678;28;20196;-63
2022/10/09 12:40:30;;;;;;;4.50;1.40;;;20.20;1.00;;;;;;5023733;28;20598;-66
2022/10/09 12:43:04;;;;;;;6.90;1.58;;;19.90;1.00;;;;;;5040863;28;20543;-64
2022/10/09 12:45:32;;;;;;;4.43;1.50;;;19.60;1.00;;;;;;5040795;28;20307;-64
2022/10/09 12:48:09;;;;;;;5.32;1.50;;;19.20;1.00;;;;;;5040671;28;20291;-64
2022/10/09 12:50:36;;;;;;;5.43;1.60;;;18.90;1.00;;;;;;5041893;28;20196;-63
2022/10/09 12:53:15;;;;;;;6.97;2.05;;;19.20;1.00;;;;;;5025458;28;20204;-64
2022/10/09 12:55:47;;;;;;;2.92;1.33;;;19.30;1.00;;;;;;5039280;28;20209;-64
2022/10/09 12:58:22;;;;;;;6.07;1.70;;;19.30;1.00;;;;;;5037487;28;20208;-64
2022/10/09 13:00:59;;;;;;;3.45;1.63;;;19.00;1.00;;;;;;5021689;28;20230;-63
2022/10/09 13:03:40;;;;;;;4.47;1.65;;;18.90;1.00;;;;;;5051022;28;20203;-66
2022/10/09 13:06:14;;;;;;;3.85;1.40;;;18.90;1.00;;;;;;5009892;28;20200;-65
2022/10/09 13:08:43;;;;;;;3.67;1.35;;;18.20;1.00;;;;;;5049579;28;20238;-65
2022/10/09 13:11:11;;;;;;;7.35;1.88;;;18.00;1.00;;;;;;5019963;28;20203;-65
2022/10/09 13:13:38;;;;;;;7.00;1.70;;;18.10;1.00;;;;;;5024976;28;20216;-65
2022/10/09 13:16:09;;;;;;;5.15;1.63;;;18.00;1.00;;;;;;5053776;28;20191;-65
2022/10/09 13:18:37;;;;;;;4.20;1.60;;;18.30;1.00;;;;;;5038418;28;20655;-65
2022/10/09 13:21:21;;;;;;;7.15;1.90;;;18.30;1.00;;;;;;5038701;28;20196;-65
2022/10/09 13:23:48;;;;;;;6.57;2.20;;;18.10;1.00;;;;;;5023657;28;20282;-66
2022/10/09 13:26:28;;;;;;;3.70;1.40;;;18.20;1.00;;;;;;5018535;28;20728;-64